DENVH LIMB-LSGS
Flight info
| Callsign | DENVH |
|---|---|
| Flight time | 0h 54m |
| Altitude | 10000 |
| Route | LUINO/SEMPION PASS/ECHO |
| Aircraft | B23/L-SGYL/C |
Departure
| Time | 2026-05-08 12:53 |
|---|---|
| Airport | Milano-Bresso Airfield (LIMB) |
Arrival
| Time | 2026-05-08 13:48 |
|---|---|
| Airport | Sion Airport (LSGS) |
| Time | Latitude | Longitude | Altitude | Speed | Heading |
|---|---|---|---|---|---|
| 2026-05-08 12:45 | 45.76943 | 9.16416 | 1257 ft | 0 kts | 188° |
| 2026-05-08 12:48 | 45.76942 | 9.16416 | 1257 ft | 0 kts | 188° |
| 2026-05-08 12:49 | 45.76932 | 9.16405 | 1257 ft | 3 kts | 235° |
| 2026-05-08 12:49 | 45.76913 | 9.16353 | 1259 ft | 7 kts | 261° |
| 2026-05-08 12:49 | 45.76917 | 9.16290 | 1254 ft | 5 kts | 282° |
| 2026-05-08 12:49 | 45.76927 | 9.16224 | 1263 ft | 1 kts | 283° |
| 2026-05-08 12:50 | 45.76942 | 9.16193 | 1263 ft | 9 kts | 314° |
| 2026-05-08 12:50 | 45.76975 | 9.16167 | 1257 ft | 0 kts | 67° |
| 2026-05-08 12:51 | 45.76977 | 9.16175 | 1257 ft | 6 kts | 69° |
| 2026-05-08 12:52 | 45.77005 | 9.16239 | 1263 ft | 6 kts | 68° |
| 2026-05-08 12:52 | 45.77121 | 9.16330 | 1271 ft | 9 kts | 24° |
| 2026-05-08 12:52 | 45.77164 | 9.16361 | 1273 ft | 5 kts | 36° |
| 2026-05-08 12:53 | 45.77184 | 9.16377 | 1274 ft | 2 kts | 295° |
| 2026-05-08 12:53 | 45.77182 | 9.16369 | 1274 ft | 0 kts | 198° |
| 2026-05-08 12:53 | 45.76991 | 9.16249 | 1264 ft | 56 kts | 204° |
| 2026-05-08 12:53 | 45.76593 | 9.15983 | 1367 ft | 64 kts | 197° |
| 2026-05-08 12:54 | 45.76158 | 9.16130 | 1476 ft | 65 kts | 155° |
| 2026-05-08 12:54 | 45.75760 | 9.16345 | 1585 ft | 59 kts | 190° |
| 2026-05-08 12:54 | 45.75535 | 9.15887 | 1711 ft | 62 kts | 284° |
| 2026-05-08 12:54 | 45.75865 | 9.15397 | 1793 ft | 75 kts | 329° |
| 2026-05-08 12:55 | 45.76329 | 9.15018 | 1928 ft | 77 kts | 334° |
| 2026-05-08 12:55 | 45.76809 | 9.14681 | 2070 ft | 78 kts | 336° |
| 2026-05-08 12:55 | 45.77325 | 9.14317 | 2167 ft | 85 kts | 337° |
| 2026-05-08 12:55 | 45.77861 | 9.13917 | 2277 ft | 86 kts | 330° |
| 2026-05-08 12:56 | 45.78314 | 9.13398 | 2441 ft | 81 kts | 319° |
| 2026-05-08 12:56 | 45.78725 | 9.12843 | 2588 ft | 81 kts | 319° |
| 2026-05-08 12:56 | 45.79107 | 9.12255 | 2739 ft | 80 kts | 311° |
| 2026-05-08 12:56 | 45.79463 | 9.11640 | 2899 ft | 80 kts | 312° |
| 2026-05-08 12:57 | 45.79818 | 9.11027 | 3065 ft | 81 kts | 312° |
| 2026-05-08 12:57 | 45.80182 | 9.10398 | 3240 ft | 83 kts | 312° |
| 2026-05-08 12:57 | 45.80559 | 9.09751 | 3425 ft | 85 kts | 311° |
| 2026-05-08 12:57 | 45.80936 | 9.09087 | 3617 ft | 88 kts | 310° |
| 2026-05-08 12:58 | 45.81339 | 9.08411 | 3859 ft | 90 kts | 314° |
| 2026-05-08 12:58 | 45.81770 | 9.07769 | 4076 ft | 88 kts | 313° |
| 2026-05-08 12:58 | 45.82166 | 9.07136 | 4278 ft | 82 kts | 313° |
| 2026-05-08 12:58 | 45.82530 | 9.06540 | 4471 ft | 77 kts | 313° |
| 2026-05-08 12:59 | 45.82871 | 9.05972 | 4628 ft | 76 kts | 312° |
| 2026-05-08 12:59 | 45.83220 | 9.05398 | 4770 ft | 76 kts | 312° |
| 2026-05-08 12:59 | 45.83632 | 9.04916 | 4920 ft | 77 kts | 322° |
| 2026-05-08 12:59 | 45.84116 | 9.04599 | 5066 ft | 77 kts | 335° |
| 2026-05-08 13:00 | 45.84612 | 9.04302 | 5219 ft | 78 kts | 336° |
| 2026-05-08 13:00 | 45.85124 | 9.04010 | 5377 ft | 81 kts | 336° |
| 2026-05-08 13:00 | 45.85644 | 9.03712 | 5547 ft | 81 kts | 335° |
| 2026-05-08 13:00 | 45.86188 | 9.03411 | 5724 ft | 84 kts | 336° |
| 2026-05-08 13:01 | 45.86727 | 9.03115 | 5906 ft | 83 kts | 336° |
| 2026-05-08 13:01 | 45.87263 | 9.02822 | 6082 ft | 82 kts | 335° |
| 2026-05-08 13:01 | 45.87794 | 9.02525 | 6259 ft | 83 kts | 336° |
| 2026-05-08 13:01 | 45.88338 | 9.02230 | 6442 ft | 83 kts | 337° |
| 2026-05-08 13:02 | 45.88879 | 9.01928 | 6615 ft | 83 kts | 336° |
| 2026-05-08 13:02 | 45.89415 | 9.01630 | 6779 ft | 83 kts | 336° |
| 2026-05-08 13:02 | 45.89953 | 9.01342 | 6945 ft | 83 kts | 337° |
| 2026-05-08 13:02 | 45.90497 | 9.01047 | 7114 ft | 83 kts | 336° |
| 2026-05-08 13:03 | 45.91042 | 9.00750 | 7284 ft | 85 kts | 336° |
| 2026-05-08 13:03 | 45.91406 | 9.00556 | 7396 ft | 83 kts | 337° |
| 2026-05-08 13:03 | 45.91942 | 9.00264 | 7557 ft | 81 kts | 336° |
| 2026-05-08 13:03 | 45.92484 | 9.00066 | 7717 ft | 81 kts | 356° |
| 2026-05-08 13:04 | 45.93000 | 9.00151 | 7842 ft | 68 kts | 0° |
| 2026-05-08 13:04 | 45.93727 | 9.00254 | 7907 ft | 87 kts | 4° |
| 2026-05-08 13:04 | 45.94141 | 9.00219 | 7973 ft | 90 kts | 350° |
| 2026-05-08 13:04 | 45.94776 | 9.00113 | 8083 ft | 93 kts | 353° |
| 2026-05-08 13:05 | 45.95433 | 8.99960 | 8098 ft | 99 kts | 341° |
| 2026-05-08 13:05 | 45.96100 | 8.99620 | 8104 ft | 105 kts | 328° |
| 2026-05-08 13:05 | 45.96660 | 8.98928 | 8139 ft | 107 kts | 313° |
| 2026-05-08 13:05 | 45.97202 | 8.98184 | 8178 ft | 108 kts | 313° |
| 2026-05-08 13:06 | 45.97753 | 8.97422 | 8145 ft | 113 kts | 314° |
| 2026-05-08 13:06 | 45.98332 | 8.96639 | 8102 ft | 114 kts | 315° |
| 2026-05-08 13:06 | 45.98895 | 8.95851 | 8096 ft | 112 kts | 314° |
| 2026-05-08 13:06 | 45.99458 | 8.95079 | 8092 ft | 111 kts | 313° |
| 2026-05-08 13:07 | 45.99903 | 8.94189 | 8091 ft | 110 kts | 301° |
| 2026-05-08 13:07 | 46.00321 | 8.93259 | 8092 ft | 111 kts | 300° |
| 2026-05-08 13:07 | 46.00761 | 8.92318 | 8084 ft | 115 kts | 301° |
| 2026-05-08 13:07 | 46.01207 | 8.91358 | 8090 ft | 115 kts | 301° |
| 2026-05-08 13:08 | 46.01650 | 8.90385 | 8087 ft | 117 kts | 302° |
| 2026-05-08 13:08 | 46.02104 | 8.89386 | 8087 ft | 122 kts | 301° |
| 2026-05-08 13:08 | 46.02564 | 8.88381 | 8088 ft | 121 kts | 302° |
| 2026-05-08 13:08 | 46.03015 | 8.87381 | 8087 ft | 118 kts | 301° |
| 2026-05-08 13:09 | 46.03468 | 8.86400 | 8078 ft | 117 kts | 301° |
| 2026-05-08 13:09 | 46.03913 | 8.85449 | 8083 ft | 112 kts | 301° |
| 2026-05-08 13:09 | 46.04344 | 8.84523 | 8082 ft | 111 kts | 301° |
| 2026-05-08 13:09 | 46.04768 | 8.83589 | 8084 ft | 111 kts | 302° |
| 2026-05-08 13:10 | 46.05188 | 8.82660 | 8083 ft | 110 kts | 302° |
| 2026-05-08 13:10 | 46.05613 | 8.81737 | 8082 ft | 111 kts | 301° |
| 2026-05-08 13:10 | 46.06037 | 8.80815 | 8079 ft | 110 kts | 301° |
| 2026-05-08 13:10 | 46.06452 | 8.79900 | 8082 ft | 109 kts | 301° |
| 2026-05-08 13:11 | 46.06864 | 8.78975 | 8083 ft | 110 kts | 301° |
| 2026-05-08 13:11 | 46.07279 | 8.78048 | 8084 ft | 110 kts | 301° |
| 2026-05-08 13:11 | 46.07690 | 8.77125 | 8074 ft | 107 kts | 301° |
| 2026-05-08 13:11 | 46.08086 | 8.76258 | 8064 ft | 104 kts | 301° |
| 2026-05-08 13:12 | 46.08482 | 8.75412 | 8114 ft | 101 kts | 301° |
| 2026-05-08 13:12 | 46.08871 | 8.74571 | 8172 ft | 101 kts | 301° |
| 2026-05-08 13:12 | 46.09255 | 8.73722 | 8229 ft | 101 kts | 301° |
| 2026-05-08 13:12 | 46.09643 | 8.72873 | 8296 ft | 101 kts | 301° |
| 2026-05-08 13:13 | 46.10039 | 8.72037 | 8365 ft | 101 kts | 302° |
| 2026-05-08 13:13 | 46.10430 | 8.71197 | 8427 ft | 101 kts | 301° |
| 2026-05-08 13:13 | 46.10821 | 8.70361 | 8492 ft | 100 kts | 301° |
| 2026-05-08 13:13 | 46.11207 | 8.69521 | 8558 ft | 100 kts | 296° |
| 2026-05-08 13:14 | 46.11413 | 8.68581 | 8647 ft | 97 kts | 283° |
| 2026-05-08 13:14 | 46.11588 | 8.67662 | 8761 ft | 94 kts | 283° |
| 2026-05-08 13:14 | 46.11761 | 8.66758 | 8871 ft | 93 kts | 283° |
| 2026-05-08 13:14 | 46.11937 | 8.65860 | 8978 ft | 93 kts | 284° |
| 2026-05-08 13:15 | 46.12118 | 8.64991 | 9093 ft | 90 kts | 283° |
| 2026-05-08 13:15 | 46.12300 | 8.64106 | 9201 ft | 93 kts | 283° |
| 2026-05-08 13:15 | 46.12468 | 8.63230 | 9309 ft | 89 kts | 283° |
| 2026-05-08 13:15 | 46.12634 | 8.62394 | 9413 ft | 86 kts | 284° |
| 2026-05-08 13:16 | 46.12795 | 8.61572 | 9514 ft | 84 kts | 283° |
| 2026-05-08 13:16 | 46.12951 | 8.60764 | 9618 ft | 84 kts | 283° |
| 2026-05-08 13:16 | 46.13111 | 8.59940 | 9724 ft | 86 kts | 283° |
| 2026-05-08 13:16 | 46.13270 | 8.59106 | 9837 ft | 86 kts | 283° |
| 2026-05-08 13:17 | 46.13431 | 8.58277 | 9950 ft | 85 kts | 282° |
| 2026-05-08 13:17 | 46.13599 | 8.57471 | 10047 ft | 84 kts | 284° |
| 2026-05-08 13:17 | 46.13770 | 8.56619 | 10068 ft | 93 kts | 283° |
| 2026-05-08 13:17 | 46.13957 | 8.55696 | 10081 ft | 99 kts | 283° |
| 2026-05-08 13:18 | 46.14149 | 8.54728 | 10084 ft | 102 kts | 284° |
| 2026-05-08 13:18 | 46.14337 | 8.53728 | 10082 ft | 104 kts | 283° |
| 2026-05-08 13:18 | 46.14530 | 8.52724 | 10083 ft | 105 kts | 284° |
| 2026-05-08 13:18 | 46.14728 | 8.51706 | 10082 ft | 106 kts | 283° |
| 2026-05-08 13:19 | 46.14925 | 8.50679 | 10079 ft | 106 kts | 283° |
| 2026-05-08 13:19 | 46.15129 | 8.49654 | 10079 ft | 107 kts | 283° |
| 2026-05-08 13:19 | 46.15337 | 8.48623 | 10080 ft | 106 kts | 283° |
| 2026-05-08 13:19 | 46.15541 | 8.47602 | 10078 ft | 106 kts | 283° |
| 2026-05-08 13:20 | 46.15741 | 8.46620 | 10162 ft | 96 kts | 283° |
| 2026-05-08 13:20 | 46.15931 | 8.45716 | 10234 ft | 93 kts | 283° |
| 2026-05-08 13:20 | 46.16115 | 8.44840 | 10309 ft | 90 kts | 283° |
| 2026-05-08 13:20 | 46.16285 | 8.43990 | 10393 ft | 87 kts | 282° |
| 2026-05-08 13:21 | 46.16465 | 8.43187 | 10471 ft | 82 kts | 284° |
| 2026-05-08 13:21 | 46.16622 | 8.42409 | 10542 ft | 80 kts | 283° |
| 2026-05-08 13:21 | 46.16789 | 8.41609 | 10557 ft | 86 kts | 282° |
| 2026-05-08 13:21 | 46.16975 | 8.40749 | 10562 ft | 93 kts | 281° |
| 2026-05-08 13:22 | 46.17090 | 8.39813 | 10578 ft | 97 kts | 276° |
| 2026-05-08 13:22 | 46.17209 | 8.38831 | 10579 ft | 101 kts | 277° |
| 2026-05-08 13:22 | 46.17314 | 8.37814 | 10561 ft | 105 kts | 276° |
| 2026-05-08 13:22 | 46.17408 | 8.36762 | 10556 ft | 106 kts | 277° |
| 2026-05-08 13:23 | 46.17504 | 8.35712 | 10556 ft | 105 kts | 276° |
| 2026-05-08 13:23 | 46.17601 | 8.34670 | 10555 ft | 105 kts | 276° |
| 2026-05-08 13:23 | 46.17697 | 8.33625 | 10558 ft | 105 kts | 276° |
| 2026-05-08 13:23 | 46.17793 | 8.32578 | 10558 ft | 105 kts | 276° |
| 2026-05-08 13:24 | 46.17891 | 8.31532 | 10555 ft | 105 kts | 276° |
| 2026-05-08 13:24 | 46.17990 | 8.30502 | 10554 ft | 105 kts | 276° |
| 2026-05-08 13:24 | 46.18093 | 8.29461 | 10554 ft | 105 kts | 277° |
| 2026-05-08 13:24 | 46.18196 | 8.28419 | 10555 ft | 105 kts | 276° |
| 2026-05-08 13:25 | 46.18297 | 8.27377 | 10551 ft | 104 kts | 276° |
| 2026-05-08 13:25 | 46.18391 | 8.26350 | 10554 ft | 102 kts | 277° |
| 2026-05-08 13:25 | 46.18484 | 8.25331 | 10549 ft | 102 kts | 277° |
| 2026-05-08 13:25 | 46.18581 | 8.24311 | 10552 ft | 103 kts | 276° |
| 2026-05-08 13:26 | 46.18678 | 8.23293 | 10552 ft | 102 kts | 276° |
| 2026-05-08 13:26 | 46.18778 | 8.22286 | 10556 ft | 100 kts | 277° |
| 2026-05-08 13:26 | 46.18907 | 8.21296 | 10552 ft | 101 kts | 279° |
| 2026-05-08 13:26 | 46.19043 | 8.20307 | 10556 ft | 100 kts | 279° |
| 2026-05-08 13:27 | 46.19180 | 8.19327 | 10555 ft | 102 kts | 279° |
| 2026-05-08 13:27 | 46.19314 | 8.18316 | 10558 ft | 102 kts | 280° |
| 2026-05-08 13:27 | 46.19453 | 8.17302 | 10557 ft | 103 kts | 280° |
| 2026-05-08 13:27 | 46.19587 | 8.16281 | 10558 ft | 104 kts | 279° |
| 2026-05-08 13:28 | 46.19724 | 8.15253 | 10564 ft | 104 kts | 279° |
| 2026-05-08 13:28 | 46.19868 | 8.14217 | 10563 ft | 106 kts | 279° |
| 2026-05-08 13:28 | 46.20014 | 8.13168 | 10560 ft | 107 kts | 280° |
| 2026-05-08 13:28 | 46.20155 | 8.12111 | 10562 ft | 107 kts | 279° |
| 2026-05-08 13:29 | 46.20302 | 8.11054 | 10558 ft | 107 kts | 280° |
| 2026-05-08 13:29 | 46.20448 | 8.10013 | 10559 ft | 105 kts | 280° |
| 2026-05-08 13:29 | 46.20593 | 8.09002 | 10558 ft | 103 kts | 280° |
| 2026-05-08 13:29 | 46.20733 | 8.07988 | 10557 ft | 103 kts | 279° |
| 2026-05-08 13:30 | 46.20877 | 8.06963 | 10560 ft | 105 kts | 280° |
| 2026-05-08 13:30 | 46.21025 | 8.05922 | 10560 ft | 107 kts | 279° |
| 2026-05-08 13:30 | 46.21176 | 8.04873 | 10557 ft | 105 kts | 280° |
| 2026-05-08 13:30 | 46.21323 | 8.03836 | 10558 ft | 106 kts | 280° |
| 2026-05-08 13:31 | 46.21466 | 8.02802 | 10555 ft | 104 kts | 280° |
| 2026-05-08 13:31 | 46.21601 | 8.01778 | 10549 ft | 103 kts | 279° |
| 2026-05-08 13:31 | 46.21738 | 8.00770 | 10545 ft | 102 kts | 280° |
| 2026-05-08 13:31 | 46.21882 | 7.99758 | 10540 ft | 104 kts | 282° |
| 2026-05-08 13:32 | 46.22069 | 7.98761 | 10538 ft | 102 kts | 284° |
| 2026-05-08 13:32 | 46.22267 | 7.97773 | 10537 ft | 104 kts | 283° |
| 2026-05-08 13:32 | 46.22484 | 7.96747 | 10537 ft | 108 kts | 284° |
| 2026-05-08 13:32 | 46.22701 | 7.95714 | 10540 ft | 107 kts | 284° |
| 2026-05-08 13:33 | 46.22906 | 7.94691 | 10540 ft | 105 kts | 283° |
| 2026-05-08 13:33 | 46.23123 | 7.93680 | 10544 ft | 107 kts | 285° |
| 2026-05-08 13:33 | 46.23327 | 7.92642 | 10543 ft | 107 kts | 284° |
| 2026-05-08 13:33 | 46.23526 | 7.91634 | 10541 ft | 105 kts | 283° |
| 2026-05-08 13:34 | 46.23731 | 7.90621 | 10539 ft | 106 kts | 283° |
| 2026-05-08 13:34 | 46.23941 | 7.89606 | 10533 ft | 105 kts | 284° |
| 2026-05-08 13:34 | 46.24155 | 7.88584 | 10535 ft | 107 kts | 284° |
| 2026-05-08 13:34 | 46.24371 | 7.87558 | 10537 ft | 107 kts | 284° |
| 2026-05-08 13:35 | 46.24591 | 7.86535 | 10537 ft | 106 kts | 284° |
| 2026-05-08 13:35 | 46.24811 | 7.85514 | 10536 ft | 106 kts | 284° |
| 2026-05-08 13:35 | 46.25023 | 7.84493 | 10544 ft | 107 kts | 284° |
| 2026-05-08 13:35 | 46.25254 | 7.83448 | 10551 ft | 111 kts | 285° |
| 2026-05-08 13:36 | 46.25482 | 7.82382 | 10544 ft | 110 kts | 284° |
| 2026-05-08 13:36 | 46.25707 | 7.81345 | 10545 ft | 106 kts | 284° |
| 2026-05-08 13:36 | 46.25915 | 7.80320 | 10547 ft | 106 kts | 284° |
| 2026-05-08 13:36 | 46.26116 | 7.79320 | 10537 ft | 104 kts | 284° |
| 2026-05-08 13:37 | 46.26321 | 7.78312 | 10537 ft | 105 kts | 283° |
| 2026-05-08 13:37 | 46.26542 | 7.77310 | 10531 ft | 104 kts | 284° |
| 2026-05-08 13:37 | 46.26763 | 7.76321 | 10533 ft | 103 kts | 284° |
| 2026-05-08 13:37 | 46.26985 | 7.75320 | 10534 ft | 106 kts | 284° |
| 2026-05-08 13:38 | 46.27196 | 7.74291 | 10537 ft | 107 kts | 284° |
| 2026-05-08 13:38 | 46.27407 | 7.73263 | 10547 ft | 108 kts | 284° |
| 2026-05-08 13:38 | 46.27630 | 7.72219 | 10548 ft | 107 kts | 284° |
| 2026-05-08 13:38 | 46.27850 | 7.71200 | 10496 ft | 110 kts | 284° |
| 2026-05-08 13:39 | 46.28087 | 7.70107 | 10345 ft | 116 kts | 284° |
| 2026-05-08 13:39 | 46.28332 | 7.68978 | 10192 ft | 120 kts | 285° |
| 2026-05-08 13:39 | 46.28576 | 7.67795 | 9990 ft | 125 kts | 284° |
| 2026-05-08 13:39 | 46.28811 | 7.66608 | 9732 ft | 127 kts | 284° |
| 2026-05-08 13:40 | 46.29059 | 7.65319 | 9257 ft | 136 kts | 281° |
| 2026-05-08 13:40 | 46.29231 | 7.63972 | 8793 ft | 137 kts | 278° |
| 2026-05-08 13:40 | 46.29389 | 7.62605 | 8345 ft | 138 kts | 278° |
| 2026-05-08 13:40 | 46.29544 | 7.61231 | 7889 ft | 139 kts | 278° |
| 2026-05-08 13:41 | 46.29697 | 7.59852 | 7440 ft | 139 kts | 278° |
| 2026-05-08 13:41 | 46.29844 | 7.58516 | 7236 ft | 126 kts | 278° |
| 2026-05-08 13:41 | 46.29972 | 7.57332 | 7234 ft | 115 kts | 278° |
| 2026-05-08 13:41 | 46.30094 | 7.56214 | 7222 ft | 111 kts | 278° |
| 2026-05-08 13:42 | 46.30222 | 7.55083 | 7065 ft | 119 kts | 278° |
| 2026-05-08 13:42 | 46.30032 | 7.53934 | 6844 ft | 123 kts | 232° |
| 2026-05-08 13:42 | 46.29344 | 7.53161 | 6584 ft | 126 kts | 217° |
| 2026-05-08 13:42 | 46.28608 | 7.52434 | 6241 ft | 131 kts | 213° |
| 2026-05-08 13:43 | 46.27882 | 7.51648 | 5863 ft | 130 kts | 225° |
| 2026-05-08 13:43 | 46.27298 | 7.50698 | 5587 ft | 124 kts | 233° |
| 2026-05-08 13:43 | 46.26768 | 7.49720 | 5221 ft | 125 kts | 234° |
| 2026-05-08 13:43 | 46.26288 | 7.48683 | 4880 ft | 126 kts | 239° |
| 2026-05-08 13:44 | 46.25820 | 7.47590 | 4605 ft | 129 kts | 240° |
| 2026-05-08 13:44 | 46.25403 | 7.46471 | 4394 ft | 126 kts | 243° |
| 2026-05-08 13:44 | 46.25004 | 7.45339 | 4174 ft | 126 kts | 244° |
| 2026-05-08 13:44 | 46.24609 | 7.44196 | 3918 ft | 128 kts | 245° |
| 2026-05-08 13:45 | 46.24236 | 7.43028 | 3582 ft | 130 kts | 246° |
| 2026-05-08 13:45 | 46.23882 | 7.41806 | 3201 ft | 135 kts | 251° |
| 2026-05-08 13:45 | 46.23601 | 7.40560 | 2919 ft | 131 kts | 252° |
| 2026-05-08 13:45 | 46.23349 | 7.39431 | 2643 ft | 102 kts | 252° |
| 2026-05-08 13:46 | 46.23172 | 7.38482 | 2308 ft | 96 kts | 257° |
| 2026-05-08 13:46 | 46.22988 | 7.37643 | 2240 ft | 90 kts | 252° |
| 2026-05-08 13:46 | 46.22820 | 7.36870 | 2106 ft | 73 kts | 251° |
| 2026-05-08 13:46 | 46.22663 | 7.36165 | 1975 ft | 74 kts | 255° |
| 2026-05-08 13:47 | 46.22512 | 7.35413 | 1846 ft | 81 kts | 251° |
| 2026-05-08 13:47 | 46.22365 | 7.34714 | 1735 ft | 67 kts | 251° |
| 2026-05-08 13:47 | 46.22233 | 7.34090 | 1631 ft | 69 kts | 250° |
| 2026-05-08 13:47 | 46.22102 | 7.33484 | 1582 ft | 50 kts | 253° |
| 2026-05-08 13:48 | 46.22045 | 7.33226 | 1582 ft | 16 kts | 251° |
| 2026-05-08 13:48 | 46.22011 | 7.33117 | 1582 ft | 9 kts | 197° |
| 2026-05-08 13:48 | 46.21954 | 7.33111 | 1582 ft | 7 kts | 173° |
| 2026-05-08 13:48 | 46.21960 | 7.33206 | 1582 ft | 13 kts | 72° |
| 2026-05-08 13:49 | 46.21986 | 7.33324 | 1582 ft | 12 kts | 73° |
| 2026-05-08 13:49 | 46.22008 | 7.33435 | 1582 ft | 17 kts | 72° |
| 2026-05-08 13:49 | 46.22023 | 7.33547 | 1582 ft | 5 kts | 165° |
| 2026-05-08 13:49 | 46.22000 | 7.33559 | 1582 ft | 2 kts | 152° |
| 2026-05-08 13:50 | 46.21995 | 7.33562 | 1582 ft | 0 kts | 156° |